Time;durP1;ratioP1;P1;durP2;ratioP2;P2;SDS_P1;SDS_P2;PMS_P1;PMS_P2;Temp;Humidity;BMP_temperature;BMP_pressure;BME280_temperature;BME280_humidity;BME280_pressure;Samples;Min_cycle;Max_cycle;Signal;HPM_P1;HPM_P2
2023/09/30 00:01:00;;;;;;;;;;;;;;;16.52;55.20;102400.56;5024916;28;125219;-67
2023/09/30 00:03:27;;;;;;;;;;;;;;;16.54;55.17;102414.75;5010049;28;124287;-67
2023/09/30 00:05:54;;;;;;;;;;;;;;;16.57;55.30;102418.22;5030018;28;114250;-66
2023/09/30 00:08:21;;;;;;;;;;;;;;;16.57;55.08;102423.56;5030563;28;113933;-66
2023/09/30 00:10:48;;;;;;;;;;;;;;;16.59;55.18;102427.03;5027511;28;124620;-66
2023/09/30 00:13:16;;;;;;;;;;;;;;;16.60;55.21;102428.78;5014937;28;124218;-66
2023/09/30 00:15:43;;;;;;;;;;;;;;;16.61;55.19;102426.00;5028117;28;114124;-66
2023/09/30 00:18:10;;;;;;;;;;;;;;;16.61;55.17;102419.81;5030240;28;114204;-66
2023/09/30 00:20:39;;;;;;;;;;;;;;;16.61;55.27;102427.84;5028837;28;124833;-66
2023/09/30 00:23:06;;;;;;;;;;;;;;;16.63;55.34;102433.97;5030459;28;124886;-66
2023/09/30 00:25:33;;;;;;;;;;;;;;;16.64;55.18;102441.09;5027167;28;115730;-66
2023/09/30 00:28:00;;;;;;;;;;;;;;;16.64;55.21;102438.41;5026356;28;114680;-66
2023/09/30 00:30:27;;;;;;;;;;;;;;;16.65;55.25;102437.44;5026341;28;124483;-66
2023/09/30 00:32:54;;;;;;;;;;;;;;;16.65;55.19;102418.72;5029053;28;124502;-66
2023/09/30 00:35:23;;;;;;;;;;;;;;;16.65;55.40;102432.09;5030481;28;114771;-66
2023/09/30 00:37:50;;;;;;;;;;;;;;;16.65;55.12;102432.09;5026913;28;114345;-66
2023/09/30 00:40:17;;;;;;;;;;;;;;;16.64;55.27;102436.59;5023216;28;124893;-66
2023/09/30 00:42:44;;;;;;;;;;;;;;;16.65;55.23;102429.44;5030738;27;122892;-66
2023/09/30 00:45:12;;;;;;;;;;;;;;;16.66;55.41;102434.72;5026930;28;115255;-66
2023/09/30 00:47:40;;;;;;;;;;;;;;;16.67;55.15;102440.94;5021821;28;113908;-66
2023/09/30 00:50:08;;;;;;;;;;;;;;;16.68;55.28;102453.38;5027809;28;125034;-66
2023/09/30 00:52:35;;;;;;;;;;;;;;;16.68;55.24;102464.06;5024869;28;123030;-66
2023/09/30 00:55:03;;;;;;;;;;;;;;;16.66;55.18;102455.25;5031110;28;114568;-66
2023/09/30 00:57:30;;;;;;;;;;;;;;;16.65;55.30;102440.13;5029374;28;113116;-66
2023/09/30 00:59:57;;;;;;;;;;;;;;;16.64;55.19;102435.72;5015210;28;123444;-66
2023/09/30 01:02:24;;;;;;;;;;;;;;;16.65;55.37;102442.81;5029133;28;124541;-66
2023/09/30 01:04:52;;;;;;;;;;;;;;;16.64;55.21;102438.41;5029025;28;113577;-66
2023/09/30 01:07:21;;;;;;;;;;;;;;;16.63;55.28;102439.34;5029480;28;114340;-66
2023/09/30 01:09:50;;;;;;;;;;;;;;;16.63;55.31;102444.69;5028226;27;122937;-66
2023/09/30 01:12:18;;;;;;;;;;;;;;;16.60;55.14;102444.84;5028642;27;123762;-66
2023/09/30 01:14:45;;;;;;;;;;;;;;;16.60;55.30;102455.53;5031376;28;115941;-66
2023/09/30 01:17:13;;;;;;;;;;;;;;;16.59;55.25;102453.78;5032188;28;114893;-66
2023/09/30 01:19:42;;;;;;;;;;;;;;;16.55;55.31;102463.75;5027532;28;124159;-66
2023/09/30 01:22:10;;;;;;;;;;;;;;;16.52;55.26;102464.75;5015213;28;123122;-66
2023/09/30 01:24:41;;;;;;;;;;;;;;;16.52;55.30;102458.56;5014307;28;113592;-66
2023/09/30 01:27:09;;;;;;;;;;;;;;;16.51;55.49;102463.00;5027603;28;114005;-66
2023/09/30 01:29:38;;;;;;;;;;;;;;;16.50;55.47;102466.63;5031632;28;125292;-66
2023/09/30 01:32:09;;;;;;;;;;;;;;;16.48;55.43;102476.53;5031234;28;125098;-66
2023/09/30 01:34:36;;;;;;;;;;;;;;;16.48;55.25;102494.38;5014224;28;113262;-66
2023/09/30 01:37:04;;;;;;;;;;;;;;;16.45;55.44;102487.38;5030095;28;114336;-66
2023/09/30 01:39:32;;;;;;;;;;;;;;;16.44;55.42;102488.28;5026454;28;124538;-65
2023/09/30 01:41:59;;;;;;;;;;;;;;;16.43;55.30;102491.91;5031282;28;124940;-65
2023/09/30 01:44:27;;;;;;;;;;;;;;;16.42;55.33;102489.28;5030744;28;114637;-66
2023/09/30 01:46:55;;;;;;;;;;;;;;;16.40;55.42;102489.34;5013767;28;113207;-66
2023/09/30 01:49:26;;;;;;;;;;;;;;;16.40;55.52;102483.16;5029853;28;123778;-66
2023/09/30 01:51:55;;;;;;;;;;;;;;;16.37;55.52;102470.78;5018545;28;125018;-66
2023/09/30 01:54:22;;;;;;;;;;;;;;;16.36;55.45;102469.03;5013571;28;113735;-66
2023/09/30 01:56:49;;;;;;;;;;;;;;;16.33;55.46;102469.16;5027999;28;113638;-66
2023/09/30 01:59:17;;;;;;;;;;;;;;;16.30;55.51;102458.63;5015373;28;122267;-66
2023/09/30 02:01:45;;;;;;;;;;;;;;;16.29;55.44;102462.22;5014144;28;123607;-66
2023/09/30 02:04:15;;;;;;;;;;;;;;;16.27;55.43;102464.09;5025465;27;114446;-66
2023/09/30 02:06:42;;;;;;;;;;;;;;;16.27;55.52;102453.38;5030733;28;113642;-66
2023/09/30 02:09:09;;;;;;;;;;;;;;;16.26;55.50;102462.38;5029270;28;125134;-66
2023/09/30 02:11:37;;;;;;;;;;;;;;;16.25;55.38;102455.25;5028090;28;124278;-66
2023/09/30 02:14:05;;;;;;;;;;;;;;;16.24;55.58;102453.53;5012544;28;113336;-66
2023/09/30 02:16:33;;;;;;;;;;;;;;;16.25;55.48;102449.91;5011538;28;112838;-66
2023/09/30 02:19:02;;;;;;;;;;;;;;;16.23;55.58;102457.13;5023789;28;124470;-66
2023/09/30 02:21:30;;;;;;;;;;;;;;;16.22;55.52;102460.72;5030647;28;124324;-66
2023/09/30 02:23:57;;;;;;;;;;;;;;;16.21;55.49;102469.69;5031228;28;114539;-66
2023/09/30 02:26:25;;;;;;;;;;;;;;;16.20;55.64;102481.31;5029171;28;114078;-66
2023/09/30 02:28:53;;;;;;;;;;;;;;;16.18;55.37;102492.09;5024311;28;124581;-66
2023/09/30 02:31:21;;;;;;;;;;;;;;;16.18;55.52;102491.22;5029349;28;123983;-65
2023/09/30 02:33:49;;;;;;;;;;;;;;;16.15;55.43;102493.06;5029533;28;113425;-66
2023/09/30 02:36:16;;;;;;;;;;;;;;;16.14;55.53;102491.34;5029762;28;114572;-66
2023/09/30 02:38:43;;;;;;;;;;;;;;;16.12;55.54;102493.22;5031332;28;124672;-66
2023/09/30 02:41:10;;;;;;;;;;;;;;;16.12;55.41;102493.22;5028308;28;124909;-66
2023/09/30 02:43:38;;;;;;;;;;;;;;;16.10;55.65;102483.50;5022629;28;114810;-66
2023/09/30 02:46:05;;;;;;;;;;;;;;;16.11;55.76;102480.78;5013520;28;112688;-66
2023/09/30 02:48:32;;;;;;;;;;;;;;;16.08;55.60;102467.53;5029832;28;124858;-66
2023/09/30 02:50:59;;;;;;;;;;;;;;;16.07;55.74;102459.59;5030040;28;122740;-66
2023/09/30 02:53:27;;;;;;;;;;;;;;;16.08;55.66;102469.34;5032328;28;115461;-66
2023/09/30 02:55:56;;;;;;;;;;;;;;;16.06;55.82;102472.09;5030507;28;114856;-65
2023/09/30 02:58:24;;;;;;;;;;;;;;;16.08;55.82;102464.88;5011794;28;124432;-66
2023/09/30 03:00:51;;;;;;;;;;;;;;;16.08;55.81;102464.88;5026872;28;123226;-66
2023/09/30 03:03:19;;;;;;;;;;;;;;;16.09;55.64;102466.63;5030008;28;114790;-66
2023/09/30 03:05:48;;;;;;;;;;;;;;;16.08;55.68;102454.16;5031262;27;112882;-66
2023/09/30 03:08:16;;;;;;;;;;;;;;;16.08;55.72;102447.97;5023052;28;124123;-66
2023/09/30 03:10:43;;;;;;;;;;;;;;;16.08;55.78;102454.16;5029335;28;124557;-66
2023/09/30 03:13:10;;;;;;;;;;;;;;;16.09;55.88;102453.25;5019649;28;114641;-66
2023/09/30 03:15:38;;;;;;;;;;;;;;;16.10;55.73;102454.13;5025545;27;113588;-66
2023/09/30 03:18:05;;;;;;;;;;;;;;;16.10;55.77;102456.78;5027099;28;125123;-66
2023/09/30 03:20:32;;;;;;;;;;;;;;;16.10;55.93;102463.00;5027415;28;124645;-66
2023/09/30 03:22:59;;;;;;;;;;;;;;;16.11;55.87;102453.19;5029339;28;114583;-66
2023/09/30 03:25:26;;;;;;;;;;;;;;;16.11;55.89;102454.06;5029081;28;113570;-66
2023/09/30 03:27:54;;;;;;;;;;;;;;;16.11;55.83;102459.41;5029228;28;123135;-66
2023/09/30 03:30:21;;;;;;;;;;;;;;;16.10;55.80;102452.31;5027775;28;124149;-65
2023/09/30 03:32:48;;;;;;;;;;;;;;;16.10;55.77;102456.78;5029689;28;115217;-65
2023/09/30 03:35:18;;;;;;;;;;;;;;;16.08;55.80;102459.50;5029761;28;113804;-65
2023/09/30 03:37:46;;;;;;;;;;;;;;;16.08;55.76;102470.22;5024454;28;123479;-65
2023/09/30 03:40:18;;;;;;;;;;;;;;;16.07;55.83;102457.81;5028113;28;124166;-65
2023/09/30 03:42:49;;;;;;;;;;;;;;;16.07;55.98;102463.16;5029674;28;115730;-65
2023/09/30 03:45:17;;;;;;;;;;;;;;;16.07;55.75;102463.16;5024542;28;114452;-65
2023/09/30 03:47:48;;;;;;;;;;;;;;;16.07;55.89;102452.44;5031548;28;125257;-65
2023/09/30 03:50:16;;;;;;;;;;;;;;;16.09;55.86;102461.28;5026168;28;124248;-65
2023/09/30 03:52:44;;;;;;;;;;;;;;;16.08;55.83;102448.81;5031670;28;115317;-65
2023/09/30 03:55:15;;;;;;;;;;;;;;;16.10;55.90;102463.00;5031245;28;114403;-65
2023/09/30 03:57:47;;;;;;;;;;;;;;;16.10;56.00;102462.13;5014997;28;124480;-65
2023/09/30 04:00:21;;;;;;;;;;;;;;;16.09;55.85;102461.28;5028091;28;123406;-65
2023/09/30 04:02:49;;;;;;;;;;;;;;;16.07;55.90;102452.44;5008514;28;113664;-65
2023/09/30 04:05:18;;;;;;;;;;;;;;;16.06;55.81;102456.03;5028781;28;113493;-65
2023/09/30 04:07:46;;;;;;;;;;;;;;;16.05;55.74;102454.31;5025746;28;125005;-65
2023/09/30 04:10:14;;;;;;;;;;;;;;;16.05;55.72;102451.66;5027854;28;124855;-65
2023/09/30 04:12:41;;;;;;;;;;;;;;;16.03;55.84;102456.19;5027831;28;114619;-65
2023/09/30 04:15:11;;;;;;;;;;;;;;;16.03;55.80;102450.84;5028406;28;114021;-65
2023/09/30 04:17:39;;;;;;;;;;;;;;;16.03;55.96;102445.50;5027962;28;124248;-65
2023/09/30 04:20:10;;;;;;;;;;;;;;;16.03;55.77;102456.19;5028677;28;124149;-66
2023/09/30 04:22:38;;;;;;;;;;;;;;;16.02;55.95;102469.63;5028265;28;114466;-65
2023/09/30 04:25:10;;;;;;;;;;;;;;;16.01;56.12;102470.53;5010637;28;114523;-66
2023/09/30 04:27:37;;;;;;;;;;;;;;;16.02;55.91;102469.63;5026633;28;124314;-65
2023/09/30 04:30:08;;;;;;;;;;;;;;;16.01;55.84;102458.06;5025538;28;124173;-65
2023/09/30 04:32:36;;;;;;;;;;;;;;;16.02;56.04;102458.94;5026523;28;115549;-66
2023/09/30 04:35:10;;;;;;;;;;;;;;;16.01;55.81;102463.41;5028368;28;115745;-65
2023/09/30 04:37:37;;;;;;;;;;;;;;;16.01;55.81;102458.06;5026717;28;124007;-66
2023/09/30 04:40:19;;;;;;;;;;;;;;;16.01;56.07;102462.50;5010166;28;122752;-65
2023/09/30 04:42:47;;;;;;;;;;;;;;;16.01;56.05;102467.88;5029506;28;114668;-66
2023/09/30 04:45:19;;;;;;;;;;;;;;;16.01;56.05;102463.41;5027887;28;114251;-66
2023/09/30 04:47:50;;;;;;;;;;;;;;;16.02;55.97;102470.47;5027905;28;124424;-65
2023/09/30 04:50:21;;;;;;;;;;;;;;;16.01;56.02;102483.91;5023397;28;124524;-66
2023/09/30 04:52:48;;;;;;;;;;;;;;;16.00;56.12;102482.19;5016324;28;113535;-66
2023/09/30 04:55:16;;;;;;;;;;;;;;;16.02;56.10;102481.16;5027179;28;113795;-66
2023/09/30 04:57:44;;;;;;;;;;;;;;;16.01;56.06;102479.44;5028912;28;124284;-66
2023/09/30 05:00:13;;;;;;;;;;;;;;;16.02;56.08;102485.66;5028225;28;124180;-66
2023/09/30 05:02:40;;;;;;;;;;;;;;;16.01;55.94;102479.44;5029163;28;114976;-66
2023/09/30 05:05:08;;;;;;;;;;;;;;;16.00;55.99;102483.03;5028834;28;114313;-66
2023/09/30 05:07:35;;;;;;;;;;;;;;;15.98;55.92;102484.91;5025467;28;125147;-66
2023/09/30 05:10:05;;;;;;;;;;;;;;;15.98;56.23;102490.25;5028676;28;124089;-66
2023/09/30 05:12:33;;;;;;;;;;;;;;;15.98;56.16;102495.59;5028259;28;114906;-66
2023/09/30 05:15:00;;;;;;;;;;;;;;;15.99;56.04;102496.47;5013772;28;113084;-66
2023/09/30 05:17:28;;;;;;;;;;;;;;;16.00;56.09;102499.06;5027607;28;124060;-66
2023/09/30 05:19:56;;;;;;;;;;;;;;;15.99;55.96;102491.97;5026543;28;124188;-66
2023/09/30 05:22:24;;;;;;;;;;;;;;;15.99;56.24;102500.00;5028998;28;115468;-66
2023/09/30 05:24:52;;;;;;;;;;;;;;;15.99;56.24;102497.31;5018285;28;114063;-66
2023/09/30 05:27:19;;;;;;;;;;;;;;;16.00;56.06;102493.72;5026662;28;123891;-66
2023/09/30 05:29:46;;;;;;;;;;;;;;;15.99;55.95;102497.31;5024418;28;124692;-66
2023/09/30 05:32:14;;;;;;;;;;;;;;;15.99;56.30;102505.34;5025234;28;114647;-67
2023/09/30 05:34:41;;;;;;;;;;;;;;;15.98;56.24;102506.28;5026489;28;113996;-67
2023/09/30 05:37:08;;;;;;;;;;;;;;;15.98;56.09;102506.28;5014726;28;123808;-66
2023/09/30 05:39:35;;;;;;;;;;;;;;;15.97;56.01;102504.53;5027928;27;124358;-66
2023/09/30 05:42:03;;;;;;;;;;;;;;;15.97;56.16;102504.53;5033996;28;114399;-66
2023/09/30 05:44:30;;;;;;;;;;;;;;;15.97;56.24;102504.53;5030821;28;114010;-66
2023/09/30 05:46:59;;;;;;;;;;;;;;;15.95;56.04;102506.41;5029193;28;124006;-66
2023/09/30 05:49:26;;;;;;;;;;;;;;;15.95;56.09;102503.72;5031182;28;124061;-66
2023/09/30 05:51:55;;;;;;;;;;;;;;;15.95;56.18;102514.41;5032446;28;115034;-66
2023/09/30 05:54:23;;;;;;;;;;;;;;;15.95;56.07;102511.75;5029433;28;112728;-66
2023/09/30 05:56:50;;;;;;;;;;;;;;;15.95;56.26;102517.09;5032456;28;123972;-66
2023/09/30 05:59:17;;;;;;;;;;;;;;;15.95;55.96;102523.31;5030220;28;124179;-66
2023/09/30 06:01:46;;;;;;;;;;;;;;;15.95;56.18;102511.75;5012251;28;113343;-66
2023/09/30 06:04:13;;;;;;;;;;;;;;;15.95;56.24;102506.41;5027247;28;113793;-66
2023/09/30 06:06:42;;;;;;;;;;;;;;;15.94;56.01;102504.69;5032339;28;124478;-66
2023/09/30 06:09:09;;;;;;;;;;;;;;;15.93;56.22;102508.28;5032501;28;124472;-66
2023/09/30 06:11:36;;;;;;;;;;;;;;;15.92;56.24;102510.06;5011763;28;115273;-66
2023/09/30 06:14:06;;;;;;;;;;;;;;;15.92;56.35;102511.88;5028077;28;114878;-65
2023/09/30 06:16:34;;;;;;;;;;;;;;;15.92;56.22;102517.22;5028149;28;124482;-65
2023/09/30 06:19:02;;;;;;;;;;;;;;;15.92;56.23;102517.22;5028814;27;123708;-65
2023/09/30 06:21:30;;;;;;;;;;;;;;;15.92;56.34;102522.59;5030954;28;114488;-65
2023/09/30 06:23:57;;;;;;;;;;;;;;;15.93;56.21;102518.97;5029008;28;114032;-65
2023/09/30 06:26:25;;;;;;;;;;;;;;;15.92;56.20;102522.59;5001705;28;123638;-64
2023/09/30 06:28:54;;;;;;;;;;;;;;;15.92;56.23;102527.91;5026238;28;123800;-65
2023/09/30 06:31:21;;;;;;;;;;;;;;;15.93;56.41;102525.16;5024164;28;115036;-65
2023/09/30 06:33:48;;;;;;;;;;;;;;;15.95;56.48;102511.75;5027731;27;113901;-65
2023/09/30 06:36:16;;;;;;;;;;;;;;;15.99;56.50;102508.00;5029660;27;124500;-65
2023/09/30 06:38:43;;;;;;;;;;;;;;;16.06;56.56;102503.28;5030497;27;122963;-64
2023/09/30 06:41:19;;;;;;;;;;;;;;;16.11;56.75;102491.47;5029558;27;114289;-64
2023/09/30 06:43:46;;;;;;;;;;;;;;;16.21;56.78;102502.66;5018500;28;114164;-64
2023/09/30 06:46:14;;;;;;;;;;;;;;;16.31;56.52;102513.81;5029324;27;124121;-64
2023/09/30 06:48:41;;;;;;;;;;;;;;;16.39;56.60;102511.69;5027768;28;124601;-65
2023/09/30 06:51:13;;;;;;;;;;;;;;;16.50;56.68;102522.81;5031705;27;114469;-65
2023/09/30 06:53:40;;;;;;;;;;;;;;;16.61;56.99;102521.47;5025692;27;114635;-65
2023/09/30 06:56:08;;;;;;;;;;;;;;;16.73;56.62;102526.28;5029618;27;124661;-65
2023/09/30 06:58:35;;;;;;;;;;;;;;;16.83;56.81;102527.63;5026746;27;124034;-65
2023/09/30 07:01:02;;;;;;;;;;;;;;;16.96;57.06;102537.81;5029127;27;115749;-64
2023/09/30 07:03:30;;;;;;;;;;;;;;;17.10;56.90;102546.06;5026458;27;114962;-65
2023/09/30 07:06:00;;;;;;;;;;;;;;;17.21;56.97;102554.47;5029030;27;124200;-64
2023/09/30 07:08:29;;;;;;;;;;;;;;;17.30;56.64;102559.41;5029718;28;123925;-66
2023/09/30 07:10:56;;;;;;;;;;;;;;;17.36;56.60;102565.44;5030876;27;115302;-66
2023/09/30 07:13:23;;;;;;;;;;;;;;;17.41;56.60;102568.78;4995486;28;113844;-66
2023/09/30 07:15:51;;;;;;;;;;;;;;;17.44;56.52;102571.31;5024532;28;124653;-66
2023/09/30 07:18:18;;;;;;;;;;;;;;;17.47;56.55;102576.53;5002777;28;124464;-65
2023/09/30 07:20:45;;;;;;;;;;;;;;;17.51;56.66;102570.09;5027657;27;114999;-66
2023/09/30 07:23:14;;;;;;;;;;;;;;;17.55;56.55;102579.72;5040500;27;114067;-66
2023/09/30 07:25:47;;;;;;;;;;;;;;;17.60;56.65;102579.50;5030337;27;124297;-66
2023/09/30 07:28:14;;;;;;;;;;;;;;;17.67;56.60;102584.50;5029580;28;124389;-64
2023/09/30 07:30:41;;;;;;;;;;;;;;;17.71;56.51;102583.41;5031475;27;114653;-62
2023/09/30 07:33:09;;;;;;;;;;;;;;;17.75;56.67;102580.59;5029930;27;113800;-65
2023/09/30 07:35:42;;;;;;;;;;;;;;;17.78;56.65;102586.69;5029718;28;124745;-62
2023/09/30 07:38:09;;;;;;;;;;;;;;;17.83;56.63;102599.84;5026120;27;124698;-64
2023/09/30 07:40:36;;;;;;;;;;;;;;;17.86;56.60;102599.75;5033824;27;114922;-60
2023/09/30 07:43:03;;;;;;;;;;;;;;;17.91;56.49;102603.06;5027117;27;113847;-61
2023/09/30 07:45:31;;;;;;;;;;;;;;;17.93;56.42;102594.94;5031811;27;124622;-60
2023/09/30 07:47:58;;;;;;;;;;;;;;;17.99;56.52;102611.63;5028201;28;124445;-61
2023/09/30 07:50:25;;;;;;;;;;;;;;;18.01;56.63;102609.75;5018020;28;114195;-61
2023/09/30 07:52:52;;;;;;;;;;;;;;;18.02;56.57;102619.50;5028148;28;114612;-62
2023/09/30 07:55:19;;;;;;;;;;;;;;;18.03;56.60;102623.94;5016131;28;124090;-62
2023/09/30 07:57:46;;;;;;;;;;;;;;;18.05;56.52;102627.41;5015885;28;124655;-61
2023/09/30 08:00:17;;;;;;;;;;;;;;;18.06;56.39;102618.44;5028243;28;116060;-62
2023/09/30 08:02:44;;;;;;;;;;;;;;;18.11;56.67;102623.56;5026794;28;114291;-62
2023/09/30 08:05:12;;;;;;;;;;;;;;;18.17;56.74;102608.97;5025605;28;125071;-62
2023/09/30 08:07:39;;;;;;;;;;;;;;;18.26;56.80;102611.22;5013176;28;124254;-61
2023/09/30 08:10:12;;;;;;;;;;;;;;;18.36;56.75;102604.44;5015582;28;113511;-62
2023/09/30 08:12:39;;;;;;;;;;;;;;;18.45;56.72;102603.97;5024686;28;113686;-62
2023/09/30 08:15:07;;;;;;;;;;;;;;;18.55;56.85;102603.53;5026102;28;125065;-62
2023/09/30 08:17:34;;;;;;;;;;;;;;;18.65;56.76;102599.44;4988893;28;123837;-61
2023/09/30 08:20:01;;;;;;;;;;;;;;;18.75;56.75;102589.97;5030298;28;114945;-62
2023/09/30 08:22:28;;;;;;;;;;;;;;;18.86;56.90;102598.34;5030696;28;114017;-61
2023/09/30 08:24:56;;;;;;;;;;;;;;;18.98;56.78;102595.97;5031136;28;124278;-61
2023/09/30 08:27:26;;;;;;;;;;;;;;;19.09;56.79;102598.97;5025630;28;125300;-61
2023/09/30 08:29:53;;;;;;;;;;;;;;;19.23;56.86;102601.78;5028794;28;115083;-61
2023/09/30 08:32:21;;;;;;;;;;;;;;;19.38;56.99;102596.53;5026834;28;114219;-62
2023/09/30 08:34:48;;;;;;;;;;;;;;;19.51;56.99;102578.78;5025591;28;123946;-62
2023/09/30 08:37:15;;;;;;;;;;;;;;;19.64;56.80;102585.19;5022031;28;124265;-61
2023/09/30 08:39:43;;;;;;;;;;;;;;;19.76;56.80;102577.44;5027478;28;115641;-61
2023/09/30 08:42:13;;;;;;;;;;;;;;;19.88;56.88;102574.06;5024074;28;114658;-61
2023/09/30 08:44:42;;;;;;;;;;;;;;;19.99;56.66;102578.84;5019521;28;124719;-62
2023/09/30 08:47:09;;;;;;;;;;;;;;;20.10;56.67;102586.28;5029111;28;124499;-62
2023/09/30 08:49:39;;;;;;;;;;;;;;;20.18;56.53;102578.66;5023978;28;115087;-62
2023/09/30 08:52:06;;;;;;;;;;;;;;;20.27;56.54;102582.59;5029919;28;114224;-62
2023/09/30 08:54:33;;;;;;;;;;;;;;;20.35;56.50;102586.59;5025668;28;125738;-62
2023/09/30 08:57:04;;;;;;;;;;;;;;;20.43;56.46;102568.16;5022379;28;124786;-62
2023/09/30 08:59:34;;;;;;;;;;;;;;;20.53;56.57;102579.28;5027149;28;114670;-62
2023/09/30 09:02:02;;;;;;;;;;;;;;;20.64;56.61;102575.94;5025979;28;113915;-62
2023/09/30 09:04:29;;;;;;;;;;;;;;;20.75;56.71;102568.09;5023537;28;124289;-62
2023/09/30 09:06:56;;;;;;;;;;;;;;;20.87;56.45;102576.38;5010690;28;122967;-63
2023/09/30 09:09:23;;;;;;;;;;;;;;;20.96;56.50;102575.81;4985585;28;114924;-63
2023/09/30 09:11:51;;;;;;;;;;;;;;;21.06;56.52;102587.78;4999956;28;114580;-62
2023/09/30 09:14:18;;;;;;;;;;;;;;;21.17;56.37;102590.66;5008483;28;123646;-62
2023/09/30 09:16:53;;;;;;;;;;;;;;;21.26;56.30;102582.97;5026208;27;125606;-62
2023/09/30 09:19:23;;;;;;;;;;;;;;;21.33;56.20;102587.00;5029335;27;113266;-62
2023/09/30 09:21:55;;;;;;;;;;;;;;;21.40;56.27;102596.44;5030777;28;113843;-62
2023/09/30 09:24:28;;;;;;;;;;;;;;;21.47;56.35;102597.81;5011912;28;124930;-62
2023/09/30 09:27:06;;;;;;;;;;;;;;;21.55;56.10;102600.91;5001981;28;124996;-62
2023/09/30 09:29:34;;;;;;;;;;;;;;;21.62;56.14;102605.88;5003323;28;115618;-62
2023/09/30 09:32:08;;;;;;;;;;;;;;;21.70;56.19;102606.25;5006169;28;114983;-62
2023/09/30 09:34:36;;;;;;;;;;;;;;;21.79;56.14;102619.16;5009411;28;123755;-62
2023/09/30 09:37:14;;;;;;;;;;;;;;;21.87;56.13;102611.44;5008324;28;122834;-62
2023/09/30 09:39:55;;;;;;;;;;;;;;;21.97;56.06;102620.66;5000935;28;114894;-62
2023/09/30 09:42:27;;;;;;;;;;;;;;;22.03;56.02;102629.34;4998835;28;114402;-62
2023/09/30 09:44:56;;;;;;;;;;;;;;;22.07;56.01;102634.41;5011140;28;124444;-62
2023/09/30 09:47:24;;;;;;;;;;;;;;;22.11;56.03;102641.38;5002564;28;124425;-62
2023/09/30 09:49:52;;;;;;;;;;;;;;;22.16;55.81;102643.75;4999049;28;114673;-62
2023/09/30 09:52:20;;;;;;;;;;;;;;;22.18;55.88;102636.41;5011554;28;112791;-62
2023/09/30 09:54:48;;;;;;;;;;;;;;;22.21;55.78;102636.22;5002274;28;123753;-62
2023/09/30 09:57:18;;;;;;;;;;;;;;;22.26;55.92;102636.78;5003950;28;124362;-62
2023/09/30 09:59:49;;;;;;;;;;;;;;;22.31;55.95;102626.56;5003075;28;114340;-63
2023/09/30 10:02:17;;;;;;;;;;;;;;;22.38;55.69;102626.16;5000224;28;114325;-63
2023/09/30 10:04:45;;;;;;;;;;;;;;;22.42;55.71;102627.69;5001787;28;124209;-62
2023/09/30 10:07:24;;;;;;;;;;;;;;;22.45;55.68;102622.06;5004541;28;124119;-62
2023/09/30 10:09:52;;;;;;;;;;;;;;;22.46;55.63;102634.63;5002864;28;114680;-64
2023/09/30 10:12:21;;;;;;;;;;;;;;;22.48;55.75;102643.47;5006153;28;113787;-62
2023/09/30 10:14:48;;;;;;;;;;;;;;;22.54;55.62;102632.25;5004662;28;124484;-62
2023/09/30 10:17:15;;;;;;;;;;;;;;;22.60;55.76;102631.84;4993196;28;124349;-62
2023/09/30 10:20:01;;;;;;;;;;;;;;;22.66;55.66;102626.03;5004942;28;114312;-62
2023/09/30 10:22:28;;;;;;;;;;;;;;;22.71;55.77;102645.47;5008744;28;114946;-62
2023/09/30 10:24:56;;;;;;;;;;;;;;;22.78;55.65;102645.09;5002965;28;124670;-63
2023/09/30 10:27:37;;;;;;;;;;;;;;;22.82;55.32;102635.78;5013731;28;124080;-62
2023/09/30 10:30:13;;;;;;;;;;;;;;;22.86;55.53;102637.31;4997063;28;114416;-62
2023/09/30 10:32:52;;;;;;;;;;;;;;;22.90;55.32;102628.88;5001272;28;114436;-63
2023/09/30 10:35:21;;;;;;;;;;;;;;;22.95;55.28;102615.06;5006922;28;125088;-62
2023/09/30 10:37:48;;;;;;;;;;;;;;;23.01;55.51;102614.63;5005178;28;124190;-63
2023/09/30 10:40:41;;;;;;;;;;;;;;;23.09;55.62;102617.72;5001741;28;113568;-63
2023/09/30 10:43:28;;;;;;;;;;;;;;;23.18;55.53;102604.50;5004163;28;113623;-63
2023/09/30 10:45:55;;;;;;;;;;;;;;;23.26;55.41;102591.28;5001915;28;124501;-63
2023/09/30 10:48:25;;;;;;;;;;;;;;;23.33;55.24;102592.59;5008954;28;124420;-63
2023/09/30 10:50:53;;;;;;;;;;;;;;;23.40;55.16;102599.28;4999991;28;114346;-63
2023/09/30 10:53:20;;;;;;;;;;;;;;;23.47;55.33;102595.19;5007184;28;113987;-63
2023/09/30 10:55:54;;;;;;;;;;;;;;;23.55;55.21;102591.06;5009910;28;124592;-63
2023/09/30 10:58:21;;;;;;;;;;;;;;;23.63;55.34;102594.06;5004650;28;124251;-63
2023/09/30 11:00:52;;;;;;;;;;;;;;;23.72;55.17;102587.97;5006374;28;114575;-63
2023/09/30 11:03:20;;;;;;;;;;;;;;;23.78;55.24;102587.53;5016505;28;114298;-63
2023/09/30 11:05:48;;;;;;;;;;;;;;;23.86;55.15;102585.13;5005650;28;124263;-63
2023/09/30 11:08:36;;;;;;;;;;;;;;;23.98;55.32;102593.31;4993019;28;125995;-63
2023/09/30 11:11:04;;;;;;;;;;;;;;;24.09;55.17;102586.16;5001823;28;115790;-63
2023/09/30 11:13:34;;;;;;;;;;;;;;;24.20;55.15;102593.44;5007191;28;114795;-63
2023/09/30 11:16:02;;;;;;;;;;;;;;;24.30;55.04;102588.22;5005459;28;124232;-63
2023/09/30 11:18:29;;;;;;;;;;;;;;;24.37;54.63;102589.47;4998940;28;123300;-63
2023/09/30 11:21:04;;;;;;;;;;;;;;;24.41;54.82;102584.69;5003493;28;114707;-63
2023/09/30 11:23:32;;;;;;;;;;;;;;;24.42;54.50;102581.84;5014382;28;114019;-63
2023/09/30 11:25:59;;;;;;;;;;;;;;;24.45;54.74;102595.19;4996933;28;123287;-63
2023/09/30 11:28:35;;;;;;;;;;;;;;;24.47;54.43;102589.66;4999531;28;124281;-63
2023/09/30 11:31:03;;;;;;;;;;;;;;;24.52;54.66;102592.88;5000309;28;114848;-63
2023/09/30 11:33:31;;;;;;;;;;;;;;;24.57;54.53;102590.69;5001095;28;114368;-63
2023/09/30 11:36:02;;;;;;;;;;;;;;;24.56;54.36;102594.38;5003093;28;123981;-61
2023/09/30 11:38:29;;;;;;;;;;;;;;;24.51;54.14;102585.72;5002545;28;123853;-60
2023/09/30 11:41:02;;;;;;;;;;;;;;;24.51;54.20;102585.72;4999839;28;114972;-61
2023/09/30 11:43:35;;;;;;;;;;;;;;;24.48;54.10;102569.69;5003539;28;114022;-61
2023/09/30 11:46:06;;;;;;;;;;;;;;;24.47;54.32;102573.41;5018640;28;124262;-61
2023/09/30 11:48:33;;;;;;;;;;;;;;;24.48;54.29;102564.28;4999484;28;124283;-62
2023/09/30 11:51:02;;;;;;;;;;;;;;;24.50;54.04;102546.06;5006160;28;114830;-60
2023/09/30 11:53:30;;;;;;;;;;;;;;;24.52;54.00;102549.53;5011196;28;113317;-60
2023/09/30 11:55:58;;;;;;;;;;;;;;;24.53;54.20;102545.00;5004241;28;123169;-61
2023/09/30 11:58:26;;;;;;;;;;;;;;;24.49;53.69;102549.75;4999017;28;124412;-61
2023/09/30 12:00:58;;;;;;;;;;;;;;;24.47;53.89;102557.16;5002775;28;115229;-61
2023/09/30 12:03:27;;;;;;;;;;;;;;;24.43;53.88;102555.63;4998983;28;114613;-61
2023/09/30 12:05:55;;;;;;;;;;;;;;;24.39;53.81;102559.56;5000889;28;124923;-61
2023/09/30 12:08:24;;;;;;;;;;;;;;;24.38;53.97;102563.25;5010025;28;97273;-61
2023/09/30 12:10:51;;;;;;;;;;;;;;;24.36;53.73;102559.81;4998361;28;114584;-61
2023/09/30 12:13:18;;;;;;;;;;;;;;;24.33;53.83;102574.44;5004181;28;113070;-61
2023/09/30 12:15:45;;;;;;;;;;;;;;;24.26;53.68;102571.34;5002456;28;125167;-61
2023/09/30 12:18:16;;;;;;;;;;;;;;;24.22;53.94;102575.28;5006174;28;123253;-61
2023/09/30 12:20:44;;;;;;;;;;;;;;;24.17;53.69;102572.03;5002805;28;114947;-61
2023/09/30 12:23:11;;;;;;;;;;;;;;;24.16;53.77;102575.72;5005315;28;113670;-61
2023/09/30 12:25:38;;;;;;;;;;;;;;;24.13;53.73;102570.53;5002945;28;124909;-60
2023/09/30 12:28:05;;;;;;;;;;;;;;;24.13;53.67;102559.72;5003409;28;124908;-60
2023/09/30 12:30:33;;;;;;;;;;;;;;;24.10;53.64;102555.38;4995503;28;115462;-61
2023/09/30 12:33:00;;;;;;;;;;;;;;;24.11;53.77;102545.44;5007754;28;113958;-61
2023/09/30 12:35:27;;;;;;;;;;;;;;;24.11;53.76;102550.84;5006028;28;125331;-61